Aquinnah, Massachusetts
Current Conditions -  °F | °C
As of 3:53 PM on Thursday 18 Dec 2014 (Local Time) from KMVY Reporting Station
Few Clouds Few Clouds  
Wind Chill: 33°   Ceiling: Unl
Heat Index: 40°   Visibility: 10mi
Dew Point: 26°   Wind: 13mph
Humidity: 58%   Direction: 300°WNW
Pressure: 29.82"   Gusts: 20mph
Location:  41.3536°N, 70.7417°W
Report Text: KMVY 182053Z 30011G17KT 10SM FEW034 04/M03 A2982 RMK AO2 SLP096 T00441033 53012
Loading
Personal Weather Stations






























Interactive Weather Map New forecast layout! Learn more

10-Day Weather Forecast

Advertisements
Track Severe Weather on mobile